createdAt,value
2018-09-20T00:02:59.824Z,10
2018-09-20T00:06:00.248Z,10
2018-09-20T00:08:59.900Z,10
2018-09-20T00:12:00.404Z,10
2018-09-20T00:14:59.839Z,10
2018-09-20T00:18:00.234Z,10
2018-09-20T00:20:59.890Z,10
2018-09-20T00:24:00.886Z,10
2018-09-20T00:27:00.163Z,10
2018-09-20T00:29:59.967Z,10
2018-09-20T00:32:59.996Z,10
2018-09-20T00:36:00.094Z,10
2018-09-20T00:39:00.154Z,10
2018-09-20T00:41:59.822Z,10
2018-09-20T00:44:59.940Z,10
2018-09-20T00:47:59.760Z,10
2018-09-20T00:51:00.400Z,10
2018-09-20T00:54:00.910Z,10
2018-09-20T00:56:59.859Z,10
2018-09-20T01:00:00.321Z,10
2018-09-20T01:02:59.860Z,9.7
2018-09-20T01:05:59.769Z,9.7
2018-09-20T01:08:59.881Z,9.7
2018-09-20T01:11:59.888Z,9.7
2018-09-20T01:15:00.095Z,9.7
2018-09-20T01:18:00.044Z,9.7
2018-09-20T01:20:59.800Z,9.7
2018-09-20T01:23:59.796Z,9.7
2018-09-20T01:26:59.892Z,9.7
2018-09-20T01:30:00.122Z,9.7
2018-09-20T01:32:59.882Z,9.7
2018-09-20T01:35:59.849Z,9.7
2018-09-20T01:38:59.787Z,9.7
2018-09-20T01:41:59.828Z,9.7
2018-09-20T01:44:59.907Z,9.7
2018-09-20T01:48:00.074Z,9.7
2018-09-20T01:50:59.770Z,9.7
2018-09-20T01:54:00.153Z,9.7
2018-09-20T01:57:00.099Z,9.7
2018-09-20T02:00:00.047Z,9.7
2018-09-20T02:02:59.879Z,9.4
2018-09-20T02:05:59.783Z,9.4
2018-09-20T02:08:59.861Z,9.4
2018-09-20T02:11:59.983Z,9.4
2018-09-20T02:15:00.035Z,9.4
2018-09-20T02:17:59.881Z,9.4
2018-09-20T02:20:59.903Z,9.4
2018-09-20T02:24:00.197Z,9.4
2018-09-20T02:27:00.112Z,9.4
2018-09-20T02:29:59.830Z,9.4
2018-09-20T02:32:59.893Z,9.4
2018-09-20T02:35:59.810Z,9.4
2018-09-20T02:38:59.953Z,9.4
2018-09-20T02:41:59.907Z,9.4
2018-09-20T02:44:59.846Z,9.4
2018-09-20T02:47:59.862Z,9.4
2018-09-20T02:50:59.866Z,9.4
2018-09-20T02:54:00.333Z,9.4
2018-09-20T02:56:59.809Z,9.4
2018-09-20T02:59:59.866Z,9.4
2018-09-20T03:03:00.138Z,9
2018-09-20T03:05:59.975Z,9
2018-09-20T03:08:59.938Z,9
2018-09-20T03:12:00.112Z,9
2018-09-20T03:14:59.838Z,9
2018-09-20T03:17:59.954Z,9
2018-09-20T03:20:59.957Z,9
2018-09-20T03:23:59.990Z,9
2018-09-20T03:26:59.989Z,9
2018-09-20T03:30:00.054Z,9
2018-09-20T03:32:59.858Z,9
2018-09-20T03:35:59.919Z,9
2018-09-20T03:39:00.131Z,9
2018-09-20T03:41:59.982Z,9
2018-09-20T03:44:59.974Z,9
2018-09-20T03:47:59.801Z,9
2018-09-20T03:50:59.999Z,9
2018-09-20T03:53:59.820Z,9
2018-09-20T03:56:59.859Z,9
2018-09-20T03:59:59.835Z,9
2018-09-20T04:02:59.935Z,8.7
2018-09-20T04:05:59.858Z,8.7
2018-09-20T04:08:59.976Z,8.7
2018-09-20T04:12:00.208Z,8.7
2018-09-20T04:15:00.142Z,8.7
2018-09-20T04:18:00.107Z,8.7
2018-09-20T04:21:00.000Z,8.7
2018-09-20T04:23:59.898Z,8.7
2018-09-20T04:26:59.958Z,8.7
2018-09-20T04:30:00.099Z,8.7
2018-09-20T04:32:59.980Z,8.7
2018-09-20T04:35:59.988Z,8.7
2018-09-20T04:38:59.873Z,8.7
2018-09-20T04:41:59.811Z,8.7
2018-09-20T04:44:59.774Z,8.7
2018-09-20T04:48:00.122Z,8.7
2018-09-20T04:50:59.828Z,8.7
2018-09-20T04:54:00.032Z,8.7
2018-09-20T04:56:59.771Z,8.7
2018-09-20T05:00:01.358Z,8.7
2018-09-20T05:02:59.836Z,8.4
2018-09-20T05:05:59.877Z,8.4
2018-09-20T05:08:59.719Z,8.4
2018-09-20T05:11:59.867Z,8.4
2018-09-20T05:14:59.839Z,8.4
2018-09-20T05:17:59.777Z,8.4
2018-09-20T05:20:59.913Z,8.4
2018-09-20T05:23:59.732Z,8.4
2018-09-20T05:26:59.811Z,8.4
2018-09-20T05:29:59.797Z,8.4
2018-09-20T05:32:59.938Z,8.4
2018-09-20T05:35:59.687Z,8.4
2018-09-20T05:39:00.199Z,8.4
2018-09-20T05:41:59.841Z,8.4
2018-09-20T05:44:59.817Z,8.4
2018-09-20T05:47:59.908Z,8.4
2018-09-20T05:50:59.945Z,8.4
2018-09-20T05:53:59.669Z,8.4
2018-09-20T05:56:59.628Z,8.4
2018-09-20T05:59:59.910Z,8.4
2018-09-20T06:02:59.973Z,8.1
2018-09-20T06:06:01.430Z,8.1
2018-09-20T06:08:59.878Z,8.1
2018-09-20T06:11:59.888Z,8.1
2018-09-20T06:15:00.006Z,8.1
2018-09-20T06:17:59.931Z,8.1
2018-09-20T06:20:59.935Z,8.1
2018-09-20T06:23:59.652Z,8.1
2018-09-20T06:26:59.822Z,8.1
2018-09-20T06:29:59.753Z,8.1
2018-09-20T06:32:59.778Z,8.1
2018-09-20T06:35:59.982Z,8.1
2018-09-20T06:38:59.742Z,8.1
2018-09-20T06:41:59.827Z,8.1
2018-09-20T06:44:59.641Z,8.1
2018-09-20T06:47:59.657Z,8.1
2018-09-20T06:50:59.734Z,8.1
2018-09-20T06:53:59.861Z,8.1
2018-09-20T06:57:00.260Z,8.1
2018-09-20T06:59:59.596Z,8.1
2018-09-20T07:03:01.720Z,8.3
2018-09-20T07:05:59.747Z,8.3
2018-09-20T07:08:59.715Z,8.3
2018-09-20T07:11:59.955Z,8.3
2018-09-20T07:14:59.843Z,8.3
2018-09-20T07:17:59.615Z,8.3
2018-09-20T07:20:59.721Z,8.3
2018-09-20T07:24:00.301Z,8.3
2018-09-20T07:26:59.819Z,8.3
2018-09-20T07:29:59.827Z,8.3
2018-09-20T07:32:59.946Z,8.3
2018-09-20T07:35:59.782Z,8.3
2018-09-20T07:38:59.728Z,8.3
2018-09-20T07:41:59.801Z,8.3
2018-09-20T07:44:59.760Z,8.3
2018-09-20T07:47:59.847Z,8.3
2018-09-20T07:50:59.970Z,8.3
2018-09-20T07:53:59.619Z,8.3
2018-09-20T07:56:59.720Z,8.3
2018-09-20T07:59:59.969Z,8.3
2018-09-20T08:02:59.657Z,8.4
2018-09-20T08:06:00.121Z,8.4
2018-09-20T08:08:59.537Z,8.4
2018-09-20T08:11:59.967Z,8.4
2018-09-20T08:14:59.711Z,8.4
2018-09-20T08:17:59.860Z,8.4
2018-09-20T08:20:59.679Z,8.4
2018-09-20T08:24:00.053Z,8.4
2018-09-20T08:26:59.717Z,8.4
2018-09-20T08:30:00.082Z,8.4
2018-09-20T08:32:59.740Z,8.4
2018-09-20T08:35:59.821Z,8.4
2018-09-20T08:38:59.841Z,8.4
2018-09-20T08:41:59.738Z,8.4
2018-09-20T08:44:59.896Z,8.4
2018-09-20T08:47:59.730Z,8.4
2018-09-20T08:51:01.184Z,8.4
2018-09-20T08:53:59.604Z,8.4
2018-09-20T08:57:01.290Z,8.4
2018-09-20T08:59:59.570Z,8.4
2018-09-20T09:02:59.883Z,8.6
2018-09-20T09:05:59.709Z,8.6
2018-09-20T09:08:59.576Z,8.6
2018-09-20T09:12:01.330Z,8.6
2018-09-20T09:14:59.854Z,8.6
2018-09-20T09:17:59.647Z,8.6
2018-09-20T09:20:59.820Z,8.6
2018-09-20T09:24:00.153Z,8.6
2018-09-20T09:26:59.784Z,8.6
2018-09-20T09:29:59.820Z,8.6
2018-09-20T09:32:59.682Z,8.6
2018-09-20T09:35:59.801Z,8.6
2018-09-20T09:38:59.642Z,8.6
2018-09-20T09:42:00.051Z,8.6
2018-09-20T09:45:00.129Z,8.6
2018-09-20T09:48:00.974Z,8.6
2018-09-20T09:50:59.903Z,8.6
2018-09-20T09:53:59.837Z,8.6
2018-09-20T09:56:59.836Z,8.6
2018-09-20T10:00:00.023Z,8.6
2018-09-20T10:03:00.244Z,8.8
2018-09-20T10:05:59.697Z,8.8
2018-09-20T10:09:00.082Z,8.8
2018-09-20T10:11:59.666Z,8.8
2018-09-20T10:14:59.925Z,8.8
2018-09-20T10:17:59.649Z,8.8
2018-09-20T10:20:59.547Z,8.8
2018-09-20T10:24:01.044Z,8.8
2018-09-20T10:26:59.724Z,8.8
2018-09-20T10:29:59.775Z,8.8
2018-09-20T10:32:59.866Z,8.8
2018-09-20T10:35:59.680Z,8.8
2018-09-20T10:38:59.931Z,8.8
2018-09-20T10:41:59.597Z,8.8
2018-09-20T10:44:59.658Z,8.8
2018-09-20T10:47:59.560Z,8.8
2018-09-20T10:51:00.360Z,8.8
2018-09-20T10:54:00.078Z,8.8
2018-09-20T10:57:00.011Z,8.8
2018-09-20T10:59:59.910Z,8.8
2018-09-20T11:03:01.711Z,8.8
2018-09-20T11:05:59.983Z,8.8
2018-09-20T11:08:59.947Z,8.8
2018-09-20T11:11:59.695Z,8.8
2018-09-20T11:14:59.925Z,8.8
2018-09-20T11:17:59.822Z,8.8
2018-09-20T11:20:59.600Z,8.8
2018-09-20T11:23:59.989Z,8.8
2018-09-20T11:27:00.001Z,8.8
2018-09-20T11:29:59.696Z,8.8
2018-09-20T11:32:59.587Z,8.8
2018-09-20T11:35:59.984Z,8.8
2018-09-20T11:38:59.610Z,8.8
2018-09-20T11:41:59.563Z,8.8
2018-09-20T11:44:59.796Z,8.8
2018-09-20T11:47:59.468Z,8.8
2018-09-20T11:50:59.646Z,8.8
2018-09-20T11:53:59.588Z,8.8
2018-09-20T11:56:59.686Z,8.8
2018-09-20T11:59:59.909Z,8.8
2018-09-20T12:02:59.738Z,8.7
2018-09-20T12:05:59.687Z,8.7
2018-09-20T12:08:59.727Z,8.7
2018-09-20T12:11:59.610Z,8.7
2018-09-20T12:14:59.695Z,8.7
2018-09-20T12:17:59.842Z,8.7
2018-09-20T12:20:59.866Z,8.7
2018-09-20T12:23:59.682Z,8.7
2018-09-20T12:26:59.822Z,8.7
2018-09-20T12:29:59.856Z,8.7
2018-09-20T12:32:59.812Z,8.7
2018-09-20T12:36:01.296Z,8.7
2018-09-20T12:38:59.643Z,8.7
2018-09-20T12:41:59.525Z,8.7
2018-09-20T12:44:59.677Z,8.7
2018-09-20T12:47:59.820Z,8.7
2018-09-20T12:50:59.878Z,8.7
2018-09-20T14:02:13.543Z,5.7
2018-09-20T14:05:13.772Z,5.7
2018-09-20T14:08:13.770Z,5.7
2018-09-20T14:11:13.597Z,5.7
2018-09-20T14:14:13.899Z,5.7
2018-09-20T14:17:13.808Z,5.7
2018-09-20T14:20:13.743Z,5.7
2018-09-20T14:23:13.664Z,5.7
2018-09-20T14:26:13.801Z,5.7
2018-09-20T14:29:13.799Z,5.7
2018-09-20T14:32:13.721Z,5.7
2018-09-20T14:35:13.556Z,5.7
2018-09-20T14:38:13.627Z,5.7
2018-09-20T14:41:13.864Z,5.7
2018-09-20T14:44:13.506Z,5.7
2018-09-20T14:47:13.821Z,5.7
2018-09-20T14:50:13.746Z,5.7
2018-09-20T14:53:13.738Z,5.7
2018-09-20T14:56:13.574Z,5.7
2018-09-20T14:59:13.870Z,5.7
2018-09-20T15:02:14.904Z,5.8
2018-09-20T15:05:13.793Z,5.8
2018-09-20T15:08:15.422Z,5.8
2018-09-20T15:11:13.717Z,5.8
2018-09-20T15:14:13.810Z,5.8
2018-09-20T15:17:13.927Z,5.8
2018-09-20T15:20:13.836Z,5.8
2018-09-20T15:23:13.622Z,5.8
2018-09-20T15:26:13.654Z,5.8
2018-09-20T15:29:13.885Z,5.8
2018-09-20T15:32:13.716Z,5.8
2018-09-20T15:35:13.759Z,5.8
2018-09-20T15:38:13.758Z,5.8
2018-09-20T15:41:13.634Z,5.8
2018-09-20T15:44:13.772Z,5.8
2018-09-20T15:47:14.186Z,5.8
2018-09-20T15:50:13.702Z,5.8
2018-09-20T15:53:13.517Z,5.8
2018-09-20T15:56:13.630Z,5.8
2018-09-20T15:59:13.600Z,5.8
2018-09-20T16:02:13.568Z,6
2018-09-20T16:05:13.554Z,6
2018-09-20T16:08:13.507Z,6
2018-09-20T16:11:13.770Z,6
2018-09-20T16:14:13.420Z,6
2018-09-20T16:17:13.828Z,6
2018-09-20T16:20:13.941Z,6
2018-09-20T16:23:13.871Z,6
2018-09-20T16:26:13.784Z,6
2018-09-20T16:29:14.078Z,6
2018-09-20T16:32:13.590Z,6
2018-09-20T16:35:13.797Z,6
2018-09-20T16:38:13.732Z,6
2018-09-20T16:41:13.588Z,6
2018-09-20T16:44:13.809Z,6
2018-09-20T16:47:13.715Z,6
2018-09-20T16:50:13.725Z,6
2018-09-20T16:53:16.203Z,6
2018-09-20T16:56:13.593Z,6
2018-09-20T16:59:13.823Z,6
2018-09-20T17:02:13.600Z,5.6
2018-09-20T17:05:15.507Z,5.6
2018-09-20T17:08:13.548Z,5.6
2018-09-20T17:11:13.605Z,5.6
2018-09-20T17:14:13.823Z,5.6
2018-09-20T17:17:13.906Z,5.6
2018-09-20T17:20:13.584Z,5.6
2018-09-20T17:23:13.713Z,5.6
2018-09-20T17:26:13.745Z,5.6
2018-09-20T17:29:13.635Z,5.6
2018-09-20T17:32:13.503Z,5.6
2018-09-20T17:35:13.738Z,5.6
2018-09-20T17:38:13.612Z,5.6
2018-09-20T17:41:13.571Z,5.6
2018-09-20T17:44:13.715Z,5.6
2018-09-20T17:47:13.525Z,5.6
2018-09-20T17:50:13.823Z,5.6
2018-09-20T17:53:13.769Z,5.6
2018-09-20T17:56:13.521Z,5.6
2018-09-20T17:59:13.799Z,5.6
2018-09-20T18:02:13.489Z,5.2
2018-09-20T18:05:13.454Z,5.2
2018-09-20T18:08:13.669Z,5.2
2018-09-20T18:11:13.484Z,5.2
2018-09-20T18:14:13.621Z,5.2
2018-09-20T18:17:13.775Z,5.2
2018-09-20T18:20:13.663Z,5.2
2018-09-20T18:23:13.603Z,5.2
2018-09-20T18:26:13.514Z,5.2
2018-09-20T18:29:13.598Z,5.2
2018-09-20T18:32:13.865Z,5.2
2018-09-20T18:35:13.722Z,5.2
2018-09-20T18:38:13.384Z,5.2
2018-09-20T18:41:13.557Z,5.2
2018-09-20T18:44:13.928Z,5.2
2018-09-20T18:47:13.921Z,5.2
2018-09-20T18:50:13.608Z,5.2
2018-09-20T18:53:13.581Z,5.2
2018-09-20T18:56:13.631Z,5.2
2018-09-20T18:59:14.009Z,5.2
2018-09-20T19:02:13.694Z,4.9
2018-09-20T19:05:13.548Z,4.9
2018-09-20T19:08:13.520Z,4.9
2018-09-20T19:11:13.910Z,4.9
2018-09-20T19:14:13.743Z,4.9
2018-09-20T19:17:13.827Z,4.9
2018-09-20T19:20:13.430Z,4.9
2018-09-20T19:23:13.665Z,4.9
2018-09-20T19:26:13.699Z,4.9
2018-09-20T19:29:13.699Z,4.9
2018-09-20T19:32:13.623Z,4.9
2018-09-20T19:35:13.988Z,4.9
2018-09-20T19:38:13.724Z,4.9
2018-09-20T19:41:13.897Z,4.9
2018-09-20T19:44:14.564Z,4.9
2018-09-20T19:47:13.584Z,4.9
2018-09-20T19:50:13.753Z,4.9
2018-09-20T19:53:13.448Z,4.9
2018-09-20T19:56:13.525Z,4.9
2018-09-20T19:59:13.551Z,4.9
2018-09-20T20:02:13.441Z,4.8
2018-09-20T20:05:13.837Z,4.8
2018-09-20T20:08:13.601Z,4.8
2018-09-20T20:11:13.435Z,4.8
2018-09-20T20:14:13.576Z,4.8
2018-09-20T20:17:13.500Z,4.8
2018-09-20T20:20:13.637Z,4.8
2018-09-20T20:23:13.603Z,4.8
2018-09-20T20:26:14.597Z,4.8
2018-09-20T20:29:13.572Z,4.8
2018-09-20T20:32:14.220Z,4.8
2018-09-20T20:35:14.157Z,4.8
2018-09-20T20:38:15.341Z,4.8
2018-09-20T20:41:13.965Z,4.8
2018-09-20T20:44:13.853Z,4.8
2018-09-20T20:47:14.269Z,4.8
2018-09-20T20:50:14.055Z,4.8
2018-09-20T20:53:14.283Z,4.8
2018-09-20T20:56:13.998Z,4.8
2018-09-20T20:59:14.332Z,4.8
2018-09-20T21:02:14.246Z,4.6
2018-09-20T21:05:14.320Z,4.6
2018-09-20T21:08:14.187Z,4.6
2018-09-20T21:11:14.016Z,4.6
2018-09-20T21:14:14.421Z,4.6
2018-09-20T21:17:15.061Z,4.6
2018-09-20T21:20:13.985Z,4.6
2018-09-20T21:23:14.654Z,4.6
2018-09-20T21:26:14.164Z,4.6
2018-09-20T21:29:14.365Z,4.6
2018-09-20T21:32:14.146Z,4.6
2018-09-20T21:35:14.183Z,4.6
2018-09-20T21:38:13.822Z,4.6
2018-09-20T21:41:13.831Z,4.6
2018-09-20T21:44:14.225Z,4.6
2018-09-20T21:47:14.082Z,4.6
2018-09-20T21:50:13.966Z,4.6
2018-09-20T21:53:13.987Z,4.6
2018-09-20T21:56:13.910Z,4.6
2018-09-20T21:59:13.577Z,4.6
2018-09-20T22:02:13.504Z,4.5
2018-09-20T22:05:13.461Z,4.5
2018-09-20T22:08:13.826Z,4.5
2018-09-20T22:11:13.603Z,4.5
2018-09-20T22:14:13.649Z,4.5
2018-09-20T22:17:13.512Z,4.5
2018-09-20T22:20:13.445Z,4.5
2018-09-20T22:23:13.631Z,4.5
2018-09-20T22:26:13.508Z,4.5
2018-09-20T22:29:13.561Z,4.5
2018-09-20T22:32:13.361Z,4.5
2018-09-20T22:35:13.626Z,4.5
2018-09-20T22:38:13.541Z,4.5
2018-09-20T22:41:13.330Z,4.5
2018-09-20T22:44:13.625Z,4.5
2018-09-20T22:47:14.075Z,4.5
2018-09-20T22:50:13.850Z,4.5
2018-09-20T22:53:13.596Z,4.5
2018-09-20T22:56:13.372Z,4.5
2018-09-20T22:59:13.295Z,4.5
2018-09-20T23:02:13.407Z,4.3
2018-09-20T23:05:13.369Z,4.3
2018-09-20T23:08:13.502Z,4.3
2018-09-20T23:11:13.395Z,4.3
2018-09-20T23:14:13.322Z,4.3
2018-09-20T23:17:13.590Z,4.3
2018-09-20T23:20:13.421Z,4.3
2018-09-20T23:23:13.679Z,4.3
2018-09-20T23:26:13.483Z,4.3
2018-09-20T23:29:13.429Z,4.3
2018-09-20T23:32:13.353Z,4.3
2018-09-20T23:35:14.028Z,4.3
2018-09-20T23:38:13.531Z,4.3
2018-09-20T23:41:13.900Z,4.3
2018-09-20T23:44:13.566Z,4.3
2018-09-20T23:47:13.567Z,4.3
2018-09-20T23:50:13.774Z,4.3
2018-09-20T23:53:13.416Z,4.3
2018-09-20T23:56:13.501Z,4.3
2018-09-20T23:59:13.438Z,4.3
